createdAt,value
2022-08-16T00:01:53.821Z,98250.47
2022-08-16T00:04:25.900Z,98244.25
2022-08-16T00:06:55.012Z,98234.88
2022-08-16T00:09:24.049Z,98243.13
2022-08-16T00:11:52.725Z,98242.59
2022-08-16T00:14:30.474Z,98246.31
2022-08-16T00:17:16.303Z,98248.81
2022-08-16T00:19:53.747Z,98251.56
2022-08-16T00:22:25.000Z,98255.75
2022-08-16T00:24:54.431Z,98259.41
2022-08-16T00:27:24.478Z,98260.47
2022-08-16T00:30:00.504Z,98269.22
2022-08-16T00:32:40.095Z,98262.84
2022-08-16T00:35:16.805Z,98267.00
2022-08-16T00:37:57.568Z,98267.94
2022-08-16T00:40:34.861Z,98256.19
2022-08-16T00:43:12.108Z,98258.44
2022-08-16T00:45:58.218Z,98261.19
2022-08-16T00:48:31.907Z,98256.47
2022-08-16T00:51:17.753Z,98263.09
2022-08-16T00:53:47.736Z,98262.59
2022-08-16T00:56:56.281Z,98275.28
2022-08-16T00:59:10.057Z,98271.13
2022-08-16T01:01:39.038Z,98265.31
2022-08-16T01:04:29.704Z,98273.25
2022-08-16T01:07:06.677Z,98267.16
2022-08-16T01:09:37.678Z,98267.00
2022-08-16T01:12:26.268Z,98261.91
2022-08-16T01:15:00.379Z,98266.81
2022-08-16T01:17:36.681Z,98269.59
2022-08-16T01:20:24.081Z,98268.06
2022-08-16T01:23:09.280Z,98276.03
2022-08-16T01:25:44.164Z,98274.28
2022-08-16T01:28:19.700Z,98272.47
2022-08-16T01:30:56.481Z,98288.28
2022-08-16T01:33:33.392Z,98287.78
2022-08-16T01:36:12.044Z,98283.78
2022-08-16T01:38:48.912Z,98284.44
2022-08-16T01:41:23.832Z,98278.94
2022-08-16T01:43:54.680Z,98284.84
2022-08-16T01:46:37.767Z,98280.38
2022-08-16T01:49:11.206Z,98281.41
2022-08-16T01:51:40.974Z,98278.06
2022-08-16T01:54:13.248Z,98284.81
2022-08-16T01:56:45.577Z,98278.94
2022-08-16T01:59:17.700Z,98278.63
2022-08-16T02:01:54.462Z,98287.94
2022-08-16T02:04:48.664Z,98282.75
2022-08-16T02:07:18.830Z,98290.25
2022-08-16T02:09:56.887Z,98274.31
2022-08-16T02:12:50.187Z,98282.19
2022-08-16T02:15:24.959Z,98289.59
2022-08-16T02:17:54.731Z,98280.81
2022-08-16T02:20:26.487Z,98280.97
2022-08-16T02:22:56.722Z,98281.84
2022-08-16T02:25:25.593Z,98285.91
2022-08-16T02:28:17.133Z,98279.78
2022-08-16T02:30:50.509Z,98288.50
2022-08-16T02:33:19.402Z,98283.81
2022-08-16T02:35:54.500Z,98285.19
2022-08-16T02:38:27.933Z,98283.34
2022-08-16T02:40:56.699Z,98282.16
2022-08-16T02:43:29.309Z,98283.63
2022-08-16T02:46:07.562Z,98277.81
2022-08-16T02:48:37.885Z,98283.81
2022-08-16T02:51:23.474Z,98282.44
2022-08-16T02:53:52.933Z,98275.59
2022-08-16T02:56:24.490Z,98278.13
2022-08-16T02:59:02.909Z,98285.47
2022-08-16T03:01:41.710Z,98287.50
2022-08-16T03:04:29.961Z,98293.06
2022-08-16T03:06:59.323Z,98289.19
2022-08-16T03:09:28.640Z,98285.34
2022-08-16T03:11:58.370Z,98280.28
2022-08-16T03:14:31.159Z,98285.03
2022-08-16T03:17:02.071Z,98294.38
2022-08-16T03:19:47.155Z,98287.50
2022-08-16T03:22:28.807Z,98293.41
2022-08-16T03:25:01.597Z,98287.69
2022-08-16T03:27:30.668Z,98284.00
2022-08-16T03:30:15.947Z,98286.19
2022-08-16T03:32:51.716Z,98288.22
2022-08-16T03:35:23.542Z,98289.03
2022-08-16T03:38:02.873Z,98285.53
2022-08-16T03:40:34.964Z,98282.50
2022-08-16T03:43:19.935Z,98285.00
2022-08-16T03:45:53.103Z,98285.34
2022-08-16T03:48:36.257Z,98284.16
2022-08-16T03:51:12.914Z,98281.66
2022-08-16T03:53:42.457Z,98288.72
2022-08-16T03:56:19.891Z,98287.22
2022-08-16T03:58:50.961Z,98299.44
2022-08-16T04:01:24.088Z,98303.81
2022-08-16T04:03:57.569Z,98295.59
2022-08-16T04:06:27.501Z,98306.13
2022-08-16T04:08:55.867Z,98299.28
2022-08-16T04:11:25.465Z,98303.78
2022-08-16T04:14:00.959Z,98304.78
2022-08-16T04:16:38.632Z,98304.13
2022-08-16T04:19:07.287Z,98308.81
2022-08-16T04:21:47.425Z,98303.28
2022-08-16T04:24:16.820Z,98306.44
2022-08-16T04:26:46.495Z,98309.97
2022-08-16T04:29:23.552Z,98307.81
2022-08-16T04:31:57.975Z,98311.16
2022-08-16T04:34:29.193Z,98307.81
2022-08-16T04:37:01.010Z,98313.78
2022-08-16T04:39:37.127Z,98321.53
2022-08-16T04:42:17.880Z,98331.38
2022-08-16T04:44:54.590Z,98322.34
2022-08-16T04:47:31.682Z,98326.47
2022-08-16T04:50:05.275Z,98337.22
2022-08-16T04:52:35.856Z,98340.91
2022-08-16T04:55:09.468Z,98343.75
2022-08-16T04:57:38.882Z,98344.06
2022-08-16T05:00:31.014Z,98350.38
2022-08-16T05:03:07.258Z,98348.31
2022-08-16T05:05:44.917Z,98350.84
2022-08-16T05:08:28.398Z,98342.81
2022-08-16T05:11:00.291Z,98341.78
2022-08-16T05:13:39.836Z,98344.94
2022-08-16T05:16:11.787Z,98351.31
2022-08-16T05:18:42.112Z,98349.66
2022-08-16T05:21:12.589Z,98352.38
2022-08-16T05:23:42.164Z,98350.38
2022-08-16T05:26:20.342Z,98351.53
2022-08-16T05:28:55.328Z,98349.03
2022-08-16T05:31:29.522Z,98338.50
2022-08-16T05:34:00.624Z,98347.69
2022-08-16T05:36:36.509Z,98349.03
2022-08-16T05:39:07.719Z,98358.59
2022-08-16T05:41:45.580Z,98360.25
2022-08-16T05:44:23.576Z,98362.94
2022-08-16T05:46:55.794Z,98363.28
2022-08-16T05:49:38.799Z,98358.91
2022-08-16T05:52:10.661Z,98369.31
2022-08-16T05:54:46.044Z,98368.31
2022-08-16T05:57:16.405Z,98367.47
2022-08-16T05:59:45.618Z,98365.25
2022-08-16T06:02:15.174Z,98367.09
2022-08-16T06:04:47.165Z,98358.56
2022-08-16T06:07:24.657Z,98374.84
2022-08-16T06:09:56.426Z,98362.69
2022-08-16T06:12:27.547Z,98367.06
2022-08-16T06:15:00.145Z,98370.75
2022-08-16T06:17:41.113Z,98373.25
2022-08-16T06:20:18.466Z,98375.59
2022-08-16T06:23:02.868Z,98386.78
2022-08-16T06:25:36.713Z,98390.00
2022-08-16T06:28:09.742Z,98394.53
2022-08-16T06:30:43.746Z,98391.28
2022-08-16T06:33:22.360Z,98384.97
2022-08-16T06:35:55.196Z,98395.38
2022-08-16T06:38:33.994Z,98393.50
2022-08-16T06:41:05.571Z,98394.97
2022-08-16T06:43:34.684Z,98402.31
2022-08-16T06:46:05.822Z,98404.69
2022-08-16T06:48:42.717Z,98396.09
2022-08-16T06:51:14.892Z,98384.78
2022-08-16T06:53:43.558Z,98390.69
2022-08-16T06:56:14.537Z,98393.31
2022-08-16T06:58:52.232Z,98386.91
2022-08-16T07:01:42.774Z,98377.41
2022-08-16T07:04:10.352Z,98390.47
2022-08-16T07:06:43.509Z,98393.94
2022-08-16T07:09:15.842Z,98387.16
2022-08-16T07:11:51.542Z,98392.00
2022-08-16T07:14:26.307Z,98385.63
2022-08-16T07:16:59.253Z,98383.09
2022-08-16T07:20:01.459Z,98386.75
2022-08-16T07:22:52.385Z,98383.78
2022-08-16T07:25:11.999Z,98388.09
2022-08-16T07:27:41.241Z,98388.75
2022-08-16T07:30:39.814Z,98386.25
2022-08-16T07:33:02.443Z,98395.13
2022-08-16T07:35:31.451Z,98383.03
2022-08-16T07:38:02.165Z,98386.19
2022-08-16T07:40:59.228Z,98384.84
2022-08-16T07:43:20.449Z,98388.44
2022-08-16T07:45:53.223Z,98394.13
2022-08-16T07:48:24.029Z,98389.47
2022-08-16T07:50:56.281Z,98388.63
2022-08-16T07:53:30.525Z,98385.16
2022-08-16T07:56:01.004Z,98384.16
2022-08-16T07:58:36.310Z,98384.25
2022-08-16T08:01:11.053Z,98381.69
2022-08-16T08:03:48.365Z,98390.81
2022-08-16T08:06:19.038Z,98393.09
2022-08-16T08:08:52.160Z,98390.41
2022-08-16T08:11:23.590Z,98397.47
2022-08-16T08:13:53.974Z,98395.38
2022-08-16T08:16:30.836Z,98402.25
2022-08-16T08:19:02.406Z,98394.66
2022-08-16T08:22:00.555Z,98399.88
2022-08-16T08:24:31.991Z,98399.47
2022-08-16T08:27:04.035Z,98400.38
2022-08-16T08:29:37.254Z,98396.63
2022-08-16T08:32:57.193Z,98401.78
2022-08-16T08:35:03.599Z,98399.16
2022-08-16T08:37:54.061Z,98393.38
2022-08-16T08:40:26.732Z,98394.59
2022-08-16T08:43:11.361Z,98391.38
2022-08-16T08:45:52.765Z,98396.94
2022-08-16T08:48:33.619Z,98395.84
2022-08-16T08:51:03.951Z,98401.72
2022-08-16T08:53:34.256Z,98408.56
2022-08-16T08:56:23.199Z,98409.25
2022-08-16T08:58:58.898Z,98398.38
2022-08-16T09:01:36.900Z,98399.72
2022-08-16T09:04:14.684Z,98391.59
2022-08-16T09:06:46.937Z,98394.13
2022-08-16T09:09:16.884Z,98397.00
2022-08-16T09:11:53.524Z,98390.56
2022-08-16T09:14:34.411Z,98397.25
2022-08-16T09:17:11.370Z,98392.03
2022-08-16T09:19:46.205Z,98390.19
2022-08-16T09:22:19.821Z,98391.56
2022-08-16T09:24:53.611Z,98395.78
2022-08-16T09:27:25.220Z,98399.78
2022-08-16T09:30:00.169Z,98399.94
2022-08-16T09:32:31.311Z,98395.50
2022-08-16T09:35:03.101Z,98392.16
2022-08-16T09:37:36.883Z,98403.38
2022-08-16T09:40:17.997Z,98381.66
2022-08-16T09:42:59.373Z,98390.44
2022-08-16T09:45:30.283Z,98394.63
2022-08-16T09:47:59.987Z,98388.53
2022-08-16T09:50:37.168Z,98394.09
2022-08-16T09:53:15.108Z,98389.13
2022-08-16T09:55:50.857Z,98381.16
2022-08-16T09:58:41.873Z,98388.03
2022-08-16T10:01:19.511Z,98386.63
2022-08-16T10:04:02.457Z,98388.09
2022-08-16T10:06:35.169Z,98383.94
2022-08-16T10:09:06.745Z,98382.66
2022-08-16T10:11:54.698Z,98395.06
2022-08-16T10:14:33.447Z,98392.47
2022-08-16T10:17:04.672Z,98396.63
2022-08-16T10:19:33.357Z,98393.28
2022-08-16T10:22:04.894Z,98388.84
2022-08-16T10:24:35.339Z,98388.88
2022-08-16T10:27:26.095Z,98389.81
2022-08-16T10:30:01.401Z,98391.66
2022-08-16T10:32:35.168Z,98386.22
2022-08-16T10:35:03.952Z,98385.06
2022-08-16T10:37:36.136Z,98388.88
2022-08-16T10:40:28.301Z,98396.78
2022-08-16T10:43:03.673Z,98388.13
2022-08-16T10:45:38.230Z,98386.38
2022-08-16T10:48:27.037Z,98388.69
2022-08-16T10:50:58.986Z,98383.16
2022-08-16T10:53:32.803Z,98388.19
2022-08-16T10:56:03.309Z,98376.44
2022-08-16T10:58:35.834Z,98382.38
2022-08-16T11:03:57.474Z,98378.56
2022-08-16T11:06:28.777Z,98388.78
2022-08-16T11:14:36.294Z,98385.56
2022-08-16T11:17:11.040Z,98394.09
2022-08-16T11:22:47.232Z,98388.66
2022-08-16T11:28:11.769Z,98386.28
2022-08-16T11:30:59.612Z,98382.50
2022-08-16T11:36:25.089Z,98384.38
2022-08-16T11:38:58.111Z,98397.78
2022-08-16T11:41:30.796Z,98408.25
2022-08-16T11:44:01.227Z,98397.28
2022-08-16T11:46:44.813Z,98392.69
2022-08-16T11:49:17.473Z,98387.06
2022-08-16T11:51:46.489Z,98384.03
2022-08-16T11:54:21.460Z,98389.34
2022-08-16T11:56:57.209Z,98383.06
2022-08-16T11:59:28.664Z,98384.47
2022-08-16T12:01:59.251Z,98397.22
2022-08-16T12:04:30.367Z,98392.31
2022-08-16T12:06:58.952Z,98397.16
2022-08-16T12:09:29.808Z,98390.91
2022-08-16T12:12:02.893Z,98399.44
2022-08-16T12:14:37.642Z,98400.41
2022-08-16T12:17:08.510Z,98397.84
2022-08-16T12:19:39.501Z,98397.31
2022-08-16T12:22:19.122Z,98391.34
2022-08-16T12:24:51.885Z,98387.19
2022-08-16T12:27:24.458Z,98385.84
2022-08-16T12:29:58.347Z,98376.13
2022-08-16T12:32:37.854Z,98374.78
2022-08-16T12:35:14.767Z,98376.28
2022-08-16T12:37:47.325Z,98379.13
2022-08-16T12:40:24.955Z,98376.56
2022-08-16T12:43:00.846Z,98379.03
2022-08-16T12:45:32.732Z,98375.53
2022-08-16T12:48:35.316Z,98370.31
2022-08-16T12:51:13.404Z,98372.13
2022-08-16T12:53:50.657Z,98373.00
2022-08-16T12:56:21.781Z,98367.41
2022-08-16T12:58:56.609Z,98367.41
2022-08-16T13:01:33.490Z,98374.84
2022-08-16T13:04:11.937Z,98375.25
2022-08-16T13:06:52.566Z,98364.69
2022-08-16T13:09:26.456Z,98359.25
2022-08-16T13:12:04.580Z,98363.19
2022-08-16T13:14:36.872Z,98366.75
2022-08-16T13:17:07.828Z,98357.75
2022-08-16T13:20:03.851Z,98368.75
2022-08-16T13:22:26.951Z,98364.53
2022-08-16T13:24:56.221Z,98363.97
2022-08-16T13:27:34.885Z,98348.66
2022-08-16T13:30:35.776Z,98360.47
2022-08-16T13:33:12.444Z,98358.22
2022-08-16T13:35:44.240Z,98355.38
2022-08-16T13:38:25.204Z,98353.72
2022-08-16T13:40:55.756Z,98345.38
2022-08-16T13:43:27.695Z,98354.09
2022-08-16T13:45:57.873Z,98348.00
2022-08-16T13:48:42.899Z,98343.91
2022-08-16T13:51:16.873Z,98346.66
2022-08-16T13:53:49.486Z,98355.47
2022-08-16T13:56:25.031Z,98345.31
2022-08-16T13:58:55.635Z,98350.94
2022-08-16T14:01:24.888Z,98343.25
2022-08-16T14:03:54.832Z,98340.72
2022-08-16T14:06:24.450Z,98350.47
2022-08-16T14:08:59.135Z,98338.34
2022-08-16T14:11:35.724Z,98354.41
2022-08-16T14:14:05.306Z,98342.88
2022-08-16T14:16:34.786Z,98338.91
2022-08-16T14:19:08.035Z,98337.56
2022-08-16T14:21:36.347Z,98339.06
2022-08-16T14:24:12.780Z,98341.03
2022-08-16T14:26:52.626Z,98337.38
2022-08-16T14:29:23.308Z,98339.13
2022-08-16T14:31:53.565Z,98335.00
2022-08-16T14:34:25.671Z,98340.75
2022-08-16T14:36:57.678Z,98324.09
2022-08-16T14:39:32.520Z,98341.84
2022-08-16T14:42:09.237Z,98332.75
2022-08-16T14:44:40.176Z,98338.50
2022-08-16T14:47:09.454Z,98333.25
2022-08-16T14:49:40.829Z,98321.56
2022-08-16T14:52:12.556Z,98323.53
2022-08-16T14:54:47.799Z,98320.72
2022-08-16T14:57:18.712Z,98319.53
2022-08-16T14:59:47.259Z,98320.34
2022-08-16T15:02:23.476Z,98315.94
2022-08-16T15:05:04.589Z,98320.06
2022-08-16T15:07:35.363Z,98318.34
2022-08-16T15:10:06.540Z,98316.56
2022-08-16T15:12:39.590Z,98309.31
2022-08-16T15:15:16.776Z,98313.25
2022-08-16T15:17:54.483Z,98323.66
2022-08-16T15:20:29.387Z,98310.72
2022-08-16T15:23:00.255Z,98306.59
2022-08-16T15:25:33.332Z,98312.03
2022-08-16T15:28:05.435Z,98317.56
2022-08-16T15:30:47.827Z,98307.03
2022-08-16T15:33:27.496Z,98317.28
2022-08-16T15:35:57.865Z,98307.44
2022-08-16T15:38:54.801Z,98312.66
2022-08-16T15:41:51.164Z,98312.38
2022-08-16T15:44:30.433Z,98311.84
2022-08-16T15:47:02.618Z,98308.53
2022-08-16T15:49:38.673Z,98307.16
2022-08-16T15:52:20.585Z,98316.78
2022-08-16T15:54:53.441Z,98317.91
2022-08-16T15:57:36.955Z,98320.91
2022-08-16T16:00:15.419Z,98320.66
2022-08-16T16:02:44.536Z,98322.00
2022-08-16T16:05:13.681Z,98322.56
2022-08-16T16:07:55.797Z,98323.13
2022-08-16T16:10:30.162Z,98320.09
2022-08-16T16:13:03.976Z,98326.69
2022-08-16T16:15:35.168Z,98325.59
2022-08-16T16:18:09.121Z,98329.75
2022-08-16T16:20:39.252Z,98328.34
2022-08-16T16:23:11.107Z,98325.25
2022-08-16T16:25:44.003Z,98332.06
2022-08-16T16:29:05.716Z,98321.91
2022-08-16T16:31:05.942Z,98322.03
2022-08-16T16:33:39.878Z,98323.09
2022-08-16T16:36:10.594Z,98321.19
2022-08-16T16:38:42.827Z,98322.19
2022-08-16T16:41:14.042Z,98321.09
2022-08-16T16:43:45.581Z,98325.75
2022-08-16T16:46:32.822Z,98331.06
2022-08-16T16:49:08.802Z,98327.25
2022-08-16T16:51:41.298Z,98327.50
2022-08-16T16:54:13.786Z,98320.91
2022-08-16T16:56:57.301Z,98312.66
2022-08-16T16:59:28.028Z,98312.66
2022-08-16T17:02:41.618Z,98314.84
2022-08-16T17:04:47.754Z,98312.94
2022-08-16T17:07:16.290Z,98321.19
2022-08-16T17:09:46.039Z,98321.19
2022-08-16T17:12:24.591Z,98313.47
2022-08-16T17:14:56.252Z,98310.72
2022-08-16T17:17:25.206Z,98309.00
2022-08-16T17:19:55.675Z,98306.94
2022-08-16T17:22:32.996Z,98303.13
2022-08-16T17:25:01.957Z,98303.00
2022-08-16T17:27:33.621Z,98306.63
2022-08-16T17:30:15.915Z,98308.06
2022-08-16T17:32:50.658Z,98315.34
2022-08-16T17:38:17.569Z,98310.53
2022-08-16T17:39:28.236Z,98311.47
2022-08-16T17:41:09.114Z,98312.75
2022-08-16T17:43:44.597Z,98309.19
2022-08-16T17:46:41.598Z,98316.19
2022-08-16T17:49:06.499Z,98320.56
2022-08-16T17:51:35.062Z,98318.09
2022-08-16T17:54:04.442Z,98314.41
2022-08-16T17:56:35.189Z,98317.59
2022-08-16T17:59:04.644Z,98315.94
2022-08-16T18:01:34.893Z,98316.50
2022-08-16T18:04:10.042Z,98327.50
2022-08-16T18:06:40.033Z,98330.50
2022-08-16T18:09:10.432Z,98323.06
2022-08-16T18:11:43.201Z,98337.56
2022-08-16T18:14:15.826Z,98331.00
2022-08-16T18:16:48.991Z,98333.25
2022-08-16T18:19:18.445Z,98341.94
2022-08-16T18:22:04.392Z,98340.31
2022-08-16T18:24:33.452Z,98333.09
2022-08-16T18:27:25.162Z,98332.53
2022-08-16T18:29:52.275Z,98334.97
2022-08-16T18:32:24.461Z,98340.50
2022-08-16T18:34:55.094Z,98335.09
2022-08-16T18:37:23.882Z,98342.84
2022-08-16T18:39:53.743Z,98334.59
2022-08-16T18:42:24.881Z,98339.78
2022-08-16T18:44:53.587Z,98342.72
2022-08-16T18:47:23.852Z,98342.09
2022-08-16T18:49:52.339Z,98344.81
2022-08-16T18:52:25.098Z,98343.69
2022-08-16T18:55:01.865Z,98346.28
2022-08-16T18:57:31.607Z,98340.47
2022-08-16T19:00:01.437Z,98349.13
2022-08-16T19:02:58.242Z,98346.28
2022-08-16T19:05:23.548Z,98354.13
2022-08-16T19:07:52.682Z,98354.47
2022-08-16T19:10:21.324Z,98354.72
2022-08-16T19:12:50.082Z,98356.41
2022-08-16T19:15:28.575Z,98361.16
2022-08-16T19:17:59.417Z,98364.63
2022-08-16T19:20:36.170Z,98365.78
2022-08-16T19:23:10.181Z,98367.66
2022-08-16T19:25:47.837Z,98355.81
2022-08-16T19:28:50.115Z,98376.47
2022-08-16T19:31:12.747Z,98379.00
2022-08-16T19:33:54.312Z,98380.28
2022-08-16T19:36:31.140Z,98386.38
2022-08-16T19:39:04.698Z,98386.69
2022-08-16T19:41:35.860Z,98387.41
2022-08-16T19:44:05.576Z,98386.53
2022-08-16T19:46:34.501Z,98394.06
2022-08-16T19:49:05.357Z,98396.59
2022-08-16T19:51:34.413Z,98395.31
2022-08-16T19:54:03.569Z,98406.13
2022-08-16T19:56:33.389Z,98398.81
2022-08-16T19:59:18.872Z,98404.81
2022-08-16T20:01:52.549Z,98402.94
2022-08-16T20:04:24.747Z,98400.44
2022-08-16T20:06:53.947Z,98405.28
2022-08-16T20:09:24.262Z,98405.53
2022-08-16T20:12:02.331Z,98412.81
2022-08-16T20:14:31.270Z,98410.50
2022-08-16T20:17:01.578Z,98403.84
2022-08-16T20:19:36.213Z,98406.59
2022-08-16T20:22:52.613Z,98406.44
2022-08-16T20:25:28.429Z,98412.63
2022-08-16T20:27:58.398Z,98415.75
2022-08-16T20:30:27.974Z,98414.13
2022-08-16T20:32:58.086Z,98420.63
2022-08-16T20:35:30.641Z,98424.91
2022-08-16T20:38:02.513Z,98421.34
2022-08-16T20:40:34.545Z,98422.00
2022-08-16T20:43:07.842Z,98422.22
2022-08-16T20:45:37.276Z,98424.31
2022-08-16T20:48:09.980Z,98426.22
2022-08-16T20:50:42.146Z,98428.91
2022-08-16T20:53:11.462Z,98416.84
2022-08-16T20:55:41.880Z,98429.16
2022-08-16T20:58:09.984Z,98429.75
2022-08-16T21:00:40.367Z,98434.16
2022-08-16T21:03:09.936Z,98442.00
2022-08-16T21:05:45.534Z,98435.75
2022-08-16T21:08:52.219Z,98444.94
2022-08-16T21:11:08.104Z,98440.16
2022-08-16T21:13:42.647Z,98441.16
2022-08-16T21:16:11.789Z,98444.78
2022-08-16T21:18:40.461Z,98447.44
2022-08-16T21:21:12.225Z,98449.25
2022-08-16T21:23:45.409Z,98452.44
2022-08-16T21:26:16.083Z,98452.63
2022-08-16T21:28:45.459Z,98448.03
2022-08-16T21:31:16.355Z,98447.44
2022-08-16T21:33:55.310Z,98450.78
2022-08-16T21:36:34.977Z,98443.69
2022-08-16T21:39:12.824Z,98444.31
2022-08-16T21:41:45.114Z,98447.03
2022-08-16T21:44:14.611Z,98448.28
2022-08-16T21:46:43.018Z,98452.00
2022-08-16T21:49:14.884Z,98444.94
2022-08-16T21:51:47.161Z,98445.56
2022-08-16T21:54:15.561Z,98440.50
2022-08-16T21:56:44.049Z,98443.28
2022-08-16T21:59:13.523Z,98437.03
2022-08-16T22:01:44.225Z,98449.31
2022-08-16T22:04:37.730Z,98448.97
2022-08-16T22:07:05.949Z,98456.81
2022-08-16T22:09:34.608Z,98446.81
2022-08-16T22:12:03.491Z,98445.94
2022-08-16T22:14:33.767Z,98448.50
2022-08-16T22:17:02.350Z,98449.91
2022-08-16T22:19:31.142Z,98446.91
2022-08-16T22:22:02.183Z,98457.25
2022-08-16T22:24:31.938Z,98459.34
2022-08-16T22:27:00.638Z,98451.84
2022-08-16T22:29:29.559Z,98451.84
2022-08-16T22:32:02.507Z,98459.59
2022-08-16T22:34:32.495Z,98456.06
2022-08-16T22:37:02.783Z,98450.22
2022-08-16T22:39:35.664Z,98452.16
2022-08-16T22:42:11.975Z,98453.03
2022-08-16T22:44:44.231Z,98454.47
2022-08-16T22:47:14.866Z,98455.06
2022-08-16T22:49:43.403Z,98461.25
2022-08-16T22:52:11.980Z,98458.56
2022-08-16T22:54:48.514Z,98455.47
2022-08-16T22:57:17.385Z,98455.50
2022-08-16T22:59:46.940Z,98459.84
2022-08-16T23:02:21.401Z,98457.09
2022-08-16T23:04:52.438Z,98448.97
2022-08-16T23:07:20.715Z,98447.31
2022-08-16T23:09:50.665Z,98435.00
2022-08-16T23:12:29.268Z,98443.06
2022-08-16T23:15:03.094Z,98433.44
2022-08-16T23:17:34.007Z,98450.03
2022-08-16T23:20:06.126Z,98435.16
2022-08-16T23:23:19.369Z,98434.47
2022-08-16T23:25:35.229Z,98439.56
2022-08-16T23:28:05.021Z,98438.81
2022-08-16T23:30:34.555Z,98441.97
2022-08-16T23:33:12.220Z,98436.84
2022-08-16T23:35:47.733Z,98440.13
2022-08-16T23:38:38.923Z,98439.53
2022-08-16T23:41:11.477Z,98439.41
2022-08-16T23:43:43.361Z,98440.38
2022-08-16T23:46:15.288Z,98434.72
2022-08-16T23:49:57.262Z,98433.19
2022-08-16T23:51:35.215Z,98432.25
2022-08-16T23:54:03.269Z,98431.50
2022-08-16T23:56:40.159Z,98428.28
2022-08-16T23:59:09.193Z,98426.22
